sensor_id;sensor_type;location;lat;lon;timestamp;temperature;humidity
25945;SHT31;13742;49.306;8.636;2022-09-09T00:00:37;18.09;71.66
25945;SHT31;13742;49.306;8.636;2022-09-09T00:01:54;18.11;71.58
25945;SHT31;13742;49.306;8.636;2022-09-09T00:02:34;18.07;72.08
25945;SHT31;13742;49.306;8.636;2022-09-09T00:03:46;18.08;71.61
25945;SHT31;13742;49.306;8.636;2022-09-09T00:04:35;18.09;71.82
25945;SHT31;13742;49.306;8.636;2022-09-09T00:07:47;18.11;72.29
25945;SHT31;13742;49.306;8.636;2022-09-09T00:08:51;18.12;72.02
25945;SHT31;13742;49.306;8.636;2022-09-09T00:10:37;18.07;72.34
25945;SHT31;13742;49.306;8.636;2022-09-09T00:11:43;18.08;72.02
25945;SHT31;13742;49.306;8.636;2022-09-09T00:12:47;18.09;72.33
25945;SHT31;13742;49.306;8.636;2022-09-09T00:13:38;18.07;72.50
25945;SHT31;13742;49.306;8.636;2022-09-09T00:14:39;18.08;72.53
25945;SHT31;13742;49.306;8.636;2022-09-09T00:15:43;18.07;72.21
25945;SHT31;13742;49.306;8.636;2022-09-09T00:16:38;18.09;72.05
25945;SHT31;13742;49.306;8.636;2022-09-09T00:17:42;18.05;72.32
25945;SHT31;13742;49.306;8.636;2022-09-09T00:20:40;17.98;72.33
25945;SHT31;13742;49.306;8.636;2022-09-09T00:21:39;18.01;72.34
25945;SHT31;13742;49.306;8.636;2022-09-09T00:22:35;18.01;72.37
25945;SHT31;13742;49.306;8.636;2022-09-09T00:23:37;17.98;72.34
25945;SHT31;13742;49.306;8.636;2022-09-09T00:24:44;18.01;72.38
25945;SHT31;13742;49.306;8.636;2022-09-09T00:25:39;17.98;72.34
25945;SHT31;13742;49.306;8.636;2022-09-09T00:26:40;17.98;72.60
25945;SHT31;13742;49.306;8.636;2022-09-09T00:27:44;17.98;72.61
25945;SHT31;13742;49.306;8.636;2022-09-09T00:29:02;18.00;72.65
25945;SHT31;13742;49.306;8.636;2022-09-09T00:29:58;17.98;72.53
25945;SHT31;13742;49.306;8.636;2022-09-09T00:30:34;17.96;72.51
25945;SHT31;13742;49.306;8.636;2022-09-09T00:31:34;17.94;72.70
25945;SHT31;13742;49.306;8.636;2022-09-09T00:32:35;17.96;72.48
25945;SHT31;13742;49.306;8.636;2022-09-09T00:33:33;17.91;72.53
25945;SHT31;13742;49.306;8.636;2022-09-09T00:34:33;17.90;72.49
25945;SHT31;13742;49.306;8.636;2022-09-09T00:35:37;17.91;72.47
25945;SHT31;13742;49.306;8.636;2022-09-09T00:36:35;17.90;72.72
25945;SHT31;13742;49.306;8.636;2022-09-09T00:37:35;17.93;72.66
25945;SHT31;13742;49.306;8.636;2022-09-09T00:38:41;17.93;72.60
25945;SHT31;13742;49.306;8.636;2022-09-09T00:39:46;17.94;72.71
25945;SHT31;13742;49.306;8.636;2022-09-09T00:40:45;17.96;72.96
25945;SHT31;13742;49.306;8.636;2022-09-09T00:41:47;17.97;73.12
25945;SHT31;13742;49.306;8.636;2022-09-09T00:42:42;17.98;72.77
25945;SHT31;13742;49.306;8.636;2022-09-09T00:43:39;18.00;72.60
25945;SHT31;13742;49.306;8.636;2022-09-09T00:44:37;17.98;72.45
25945;SHT31;13742;49.306;8.636;2022-09-09T00:45:45;17.97;72.62
25945;SHT31;13742;49.306;8.636;2022-09-09T00:46:45;17.97;72.76
25945;SHT31;13742;49.306;8.636;2022-09-09T00:47:49;17.97;72.66
25945;SHT31;13742;49.306;8.636;2022-09-09T00:49:45;17.98;72.80
25945;SHT31;13742;49.306;8.636;2022-09-09T00:52:51;17.96;72.58
25945;SHT31;13742;49.306;8.636;2022-09-09T00:55:03;17.94;72.92
25945;SHT31;13742;49.306;8.636;2022-09-09T00:55:44;17.96;73.12
25945;SHT31;13742;49.306;8.636;2022-09-09T00:56:37;17.97;73.27
25945;SHT31;13742;49.306;8.636;2022-09-09T00:57:36;17.97;73.04
25945;SHT31;13742;49.306;8.636;2022-09-09T00:58:33;17.94;73.22
25945;SHT31;13742;49.306;8.636;2022-09-09T00:59:48;17.96;73.34
25945;SHT31;13742;49.306;8.636;2022-09-09T01:00:50;17.96;73.69
25945;SHT31;13742;49.306;8.636;2022-09-09T01:01:36;17.96;73.38
25945;SHT31;13742;49.306;8.636;2022-09-09T01:03:31;17.96;73.41
25945;SHT31;13742;49.306;8.636;2022-09-09T01:04:36;17.96;73.24
25945;SHT31;13742;49.306;8.636;2022-09-09T01:06:35;17.96;72.83
25945;SHT31;13742;49.306;8.636;2022-09-09T01:07:34;17.94;72.77
25945;SHT31;13742;49.306;8.636;2022-09-09T01:09:45;17.96;73.08
25945;SHT31;13742;49.306;8.636;2022-09-09T01:12:44;17.94;73.16
25945;SHT31;13742;49.306;8.636;2022-09-09T01:13:35;17.96;73.07
25945;SHT31;13742;49.306;8.636;2022-09-09T01:14:49;17.94;73.09
25945;SHT31;13742;49.306;8.636;2022-09-09T01:15:34;17.94;73.14
25945;SHT31;13742;49.306;8.636;2022-09-09T01:16:34;17.93;73.77
25945;SHT31;13742;49.306;8.636;2022-09-09T01:17:46;17.96;73.45
25945;SHT31;13742;49.306;8.636;2022-09-09T01:18:44;17.96;73.55
25945;SHT31;13742;49.306;8.636;2022-09-09T01:19:53;17.96;73.69
25945;SHT31;13742;49.306;8.636;2022-09-09T01:22:56;17.97;73.63
25945;SHT31;13742;49.306;8.636;2022-09-09T01:24:40;17.97;73.28
25945;SHT31;13742;49.306;8.636;2022-09-09T01:27:35;18.01;74.49
25945;SHT31;13742;49.306;8.636;2022-09-09T01:28:36;17.83;75.05
25945;SHT31;13742;49.306;8.636;2022-09-09T01:29:33;17.90;74.69
25945;SHT31;13742;49.306;8.636;2022-09-09T01:30:38;17.93;74.51
25945;SHT31;13742;49.306;8.636;2022-09-09T01:33:33;17.97;74.32
25945;SHT31;13742;49.306;8.636;2022-09-09T01:34:38;18.01;74.21
25945;SHT31;13742;49.306;8.636;2022-09-09T01:36:40;18.01;74.26
25945;SHT31;13742;49.306;8.636;2022-09-09T01:37:33;18.01;74.33
25945;SHT31;13742;49.306;8.636;2022-09-09T01:38:34;18.05;73.98
25945;SHT31;13742;49.306;8.636;2022-09-09T01:39:35;18.04;74.18
25945;SHT31;13742;49.306;8.636;2022-09-09T01:40:34;18.03;74.11
25945;SHT31;13742;49.306;8.636;2022-09-09T01:41:33;18.04;74.04
25945;SHT31;13742;49.306;8.636;2022-09-09T01:42:33;18.03;73.99
25945;SHT31;13742;49.306;8.636;2022-09-09T01:43:33;18.04;73.99
25945;SHT31;13742;49.306;8.636;2022-09-09T01:44:34;18.03;74.34
25945;SHT31;13742;49.306;8.636;2022-09-09T01:45:34;18.03;74.08
25945;SHT31;13742;49.306;8.636;2022-09-09T01:46:33;18.00;73.97
25945;SHT31;13742;49.306;8.636;2022-09-09T01:47:34;18.01;73.79
25945;SHT31;13742;49.306;8.636;2022-09-09T01:48:34;18.01;73.93
25945;SHT31;13742;49.306;8.636;2022-09-09T01:49:33;18.01;74.34
25945;SHT31;13742;49.306;8.636;2022-09-09T01:50:33;18.01;74.55
25945;SHT31;13742;49.306;8.636;2022-09-09T01:51:35;17.98;74.60
25945;SHT31;13742;49.306;8.636;2022-09-09T01:52:35;17.97;74.43
25945;SHT31;13742;49.306;8.636;2022-09-09T01:53:33;17.97;74.40
25945;SHT31;13742;49.306;8.636;2022-09-09T01:54:34;17.98;74.44
25945;SHT31;13742;49.306;8.636;2022-09-09T01:55:56;17.97;74.39
25945;SHT31;13742;49.306;8.636;2022-09-09T01:56:41;17.98;74.50
25945;SHT31;13742;49.306;8.636;2022-09-09T01:57:46;17.97;74.69
25945;SHT31;13742;49.306;8.636;2022-09-09T02:00:37;17.97;74.76
25945;SHT31;13742;49.306;8.636;2022-09-09T02:02:42;17.93;74.47
25945;SHT31;13742;49.306;8.636;2022-09-09T02:03:35;17.96;74.84
25945;SHT31;13742;49.306;8.636;2022-09-09T02:04:42;17.94;74.48
25945;SHT31;13742;49.306;8.636;2022-09-09T02:05:40;17.94;74.52
25945;SHT31;13742;49.306;8.636;2022-09-09T02:06:35;17.93;74.41
25945;SHT31;13742;49.306;8.636;2022-09-09T02:07:40;17.96;74.63
25945;SHT31;13742;49.306;8.636;2022-09-09T02:08:42;17.96;74.50
25945;SHT31;13742;49.306;8.636;2022-09-09T02:09:35;17.94;74.96
25945;SHT31;13742;49.306;8.636;2022-09-09T02:11:34;17.94;74.77
25945;SHT31;13742;49.306;8.636;2022-09-09T02:12:35;17.96;74.59
25945;SHT31;13742;49.306;8.636;2022-09-09T02:13:36;17.97;74.87
25945;SHT31;13742;49.306;8.636;2022-09-09T02:14:37;17.93;74.82
25945;SHT31;13742;49.306;8.636;2022-09-09T02:16:50;17.93;75.05
25945;SHT31;13742;49.306;8.636;2022-09-09T02:17:36;17.94;75.21
25945;SHT31;13742;49.306;8.636;2022-09-09T02:19:37;17.96;75.21
25945;SHT31;13742;49.306;8.636;2022-09-09T02:20:35;17.93;75.48
25945;SHT31;13742;49.306;8.636;2022-09-09T02:21:35;17.94;75.34
25945;SHT31;13742;49.306;8.636;2022-09-09T02:22:36;17.94;75.41
25945;SHT31;13742;49.306;8.636;2022-09-09T02:23:34;17.94;75.21
25945;SHT31;13742;49.306;8.636;2022-09-09T02:24:36;17.93;75.20
25945;SHT31;13742;49.306;8.636;2022-09-09T02:25:35;17.91;75.49
25945;SHT31;13742;49.306;8.636;2022-09-09T02:26:38;17.91;75.30
25945;SHT31;13742;49.306;8.636;2022-09-09T02:27:34;17.93;75.16
25945;SHT31;13742;49.306;8.636;2022-09-09T02:28:34;17.91;75.49
25945;SHT31;13742;49.306;8.636;2022-09-09T02:29:36;17.91;75.26
25945;SHT31;13742;49.306;8.636;2022-09-09T02:30:34;17.88;75.23
25945;SHT31;13742;49.306;8.636;2022-09-09T02:31:36;17.87;75.53
25945;SHT31;13742;49.306;8.636;2022-09-09T02:32:35;17.88;75.65
25945;SHT31;13742;49.306;8.636;2022-09-09T02:33:40;17.87;75.74
25945;SHT31;13742;49.306;8.636;2022-09-09T02:34:36;17.86;75.46
25945;SHT31;13742;49.306;8.636;2022-09-09T02:35:34;17.86;75.87
25945;SHT31;13742;49.306;8.636;2022-09-09T02:36:35;17.88;75.86
25945;SHT31;13742;49.306;8.636;2022-09-09T02:37:38;17.84;75.55
25945;SHT31;13742;49.306;8.636;2022-09-09T02:38:40;17.86;75.68
25945;SHT31;13742;49.306;8.636;2022-09-09T02:39:33;17.86;75.78
25945;SHT31;13742;49.306;8.636;2022-09-09T02:40:33;17.87;75.86
25945;SHT31;13742;49.306;8.636;2022-09-09T02:41:36;17.88;75.75
25945;SHT31;13742;49.306;8.636;2022-09-09T02:42:42;17.87;76.50
25945;SHT31;13742;49.306;8.636;2022-09-09T02:43:34;17.88;76.03
25945;SHT31;13742;49.306;8.636;2022-09-09T02:44:34;17.80;76.19
25945;SHT31;13742;49.306;8.636;2022-09-09T02:47:39;17.81;76.00
25945;SHT31;13742;49.306;8.636;2022-09-09T02:48:58;17.83;76.21
25945;SHT31;13742;49.306;8.636;2022-09-09T02:51:40;17.81;76.31
25945;SHT31;13742;49.306;8.636;2022-09-09T02:53:45;17.81;76.17
25945;SHT31;13742;49.306;8.636;2022-09-09T02:54:35;17.79;76.34
25945;SHT31;13742;49.306;8.636;2022-09-09T02:55:41;17.79;76.21
25945;SHT31;13742;49.306;8.636;2022-09-09T02:56:40;17.80;76.69
25945;SHT31;13742;49.306;8.636;2022-09-09T02:57:34;17.77;76.09
25945;SHT31;13742;49.306;8.636;2022-09-09T02:58:33;17.72;76.10
25945;SHT31;13742;49.306;8.636;2022-09-09T02:59:33;17.73;76.25
25945;SHT31;13742;49.306;8.636;2022-09-09T03:00:36;17.74;76.02
25945;SHT31;13742;49.306;8.636;2022-09-09T03:01:35;17.73;76.22
25945;SHT31;13742;49.306;8.636;2022-09-09T03:02:33;17.72;75.80
25945;SHT31;13742;49.306;8.636;2022-09-09T03:03:34;17.70;75.69
25945;SHT31;13742;49.306;8.636;2022-09-09T03:04:33;17.67;75.95
25945;SHT31;13742;49.306;8.636;2022-09-09T03:05:33;17.69;75.74
25945;SHT31;13742;49.306;8.636;2022-09-09T03:06:34;17.66;75.81
25945;SHT31;13742;49.306;8.636;2022-09-09T03:07:33;17.69;75.75
25945;SHT31;13742;49.306;8.636;2022-09-09T03:08:33;17.66;75.65
25945;SHT31;13742;49.306;8.636;2022-09-09T03:09:33;17.66;75.97
25945;SHT31;13742;49.306;8.636;2022-09-09T03:10:34;17.66;76.02
25945;SHT31;13742;49.306;8.636;2022-09-09T03:11:33;17.67;76.08
25945;SHT31;13742;49.306;8.636;2022-09-09T03:12:33;17.67;76.05
25945;SHT31;13742;49.306;8.636;2022-09-09T03:13:33;17.67;76.02
25945;SHT31;13742;49.306;8.636;2022-09-09T03:14:33;17.66;75.87
25945;SHT31;13742;49.306;8.636;2022-09-09T03:15:34;17.70;75.87
25945;SHT31;13742;49.306;8.636;2022-09-09T03:16:34;17.69;76.07
25945;SHT31;13742;49.306;8.636;2022-09-09T03:17:34;17.69;76.09
25945;SHT31;13742;49.306;8.636;2022-09-09T03:18:34;17.69;75.81
25945;SHT31;13742;49.306;8.636;2022-09-09T03:19:35;17.69;75.90
25945;SHT31;13742;49.306;8.636;2022-09-09T03:20:33;17.69;76.16
25945;SHT31;13742;49.306;8.636;2022-09-09T03:21:33;17.69;76.08
25945;SHT31;13742;49.306;8.636;2022-09-09T03:22:34;17.70;75.85
25945;SHT31;13742;49.306;8.636;2022-09-09T03:23:33;17.69;76.24
25945;SHT31;13742;49.306;8.636;2022-09-09T03:24:33;17.69;75.83
25945;SHT31;13742;49.306;8.636;2022-09-09T03:25:33;17.67;75.89
25945;SHT31;13742;49.306;8.636;2022-09-09T03:26:33;17.69;75.68
25945;SHT31;13742;49.306;8.636;2022-09-09T03:27:33;17.67;75.60
25945;SHT31;13742;49.306;8.636;2022-09-09T03:28:33;17.66;75.48
25945;SHT31;13742;49.306;8.636;2022-09-09T03:29:34;17.67;75.75
25945;SHT31;13742;49.306;8.636;2022-09-09T03:30:34;17.67;75.68
25945;SHT31;13742;49.306;8.636;2022-09-09T03:31:34;17.63;75.49
25945;SHT31;13742;49.306;8.636;2022-09-09T03:32:33;17.65;75.84
25945;SHT31;13742;49.306;8.636;2022-09-09T03:33:37;17.62;75.67
25945;SHT31;13742;49.306;8.636;2022-09-09T03:34:33;17.59;75.70
25945;SHT31;13742;49.306;8.636;2022-09-09T03:35:33;17.62;75.70
25945;SHT31;13742;49.306;8.636;2022-09-09T03:36:33;17.63;75.77
25945;SHT31;13742;49.306;8.636;2022-09-09T03:37:33;17.59;75.93
25945;SHT31;13742;49.306;8.636;2022-09-09T03:38:33;17.59;75.86
25945;SHT31;13742;49.306;8.636;2022-09-09T03:39:33;17.62;75.74
25945;SHT31;13742;49.306;8.636;2022-09-09T03:40:34;17.59;75.57
25945;SHT31;13742;49.306;8.636;2022-09-09T03:41:34;17.62;75.77
25945;SHT31;13742;49.306;8.636;2022-09-09T03:42:33;17.59;76.38
25945;SHT31;13742;49.306;8.636;2022-09-09T03:43:34;17.59;76.44
25945;SHT31;13742;49.306;8.636;2022-09-09T03:44:33;17.62;75.95
25945;SHT31;13742;49.306;8.636;2022-09-09T03:45:33;17.59;75.91
25945;SHT31;13742;49.306;8.636;2022-09-09T03:46:33;17.60;75.88
25945;SHT31;13742;49.306;8.636;2022-09-09T03:47:33;17.62;75.72
25945;SHT31;13742;49.306;8.636;2022-09-09T03:48:33;17.60;75.61
25945;SHT31;13742;49.306;8.636;2022-09-09T03:49:33;17.60;75.77
25945;SHT31;13742;49.306;8.636;2022-09-09T03:50:33;17.59;75.93
25945;SHT31;13742;49.306;8.636;2022-09-09T03:51:36;17.60;76.41
25945;SHT31;13742;49.306;8.636;2022-09-09T03:52:38;17.57;76.24
25945;SHT31;13742;49.306;8.636;2022-09-09T03:53:34;17.60;76.52
25945;SHT31;13742;49.306;8.636;2022-09-09T03:54:34;17.59;76.25
25945;SHT31;13742;49.306;8.636;2022-09-09T03:55:33;17.59;75.96
25945;SHT31;13742;49.306;8.636;2022-09-09T03:56:34;17.62;76.10
25945;SHT31;13742;49.306;8.636;2022-09-09T03:57:35;17.62;76.30
25945;SHT31;13742;49.306;8.636;2022-09-09T03:58:35;17.60;76.10
25945;SHT31;13742;49.306;8.636;2022-09-09T03:59:35;17.60;75.86
25945;SHT31;13742;49.306;8.636;2022-09-09T04:00:33;17.62;75.83
25945;SHT31;13742;49.306;8.636;2022-09-09T04:01:34;17.62;75.99
25945;SHT31;13742;49.306;8.636;2022-09-09T04:02:33;17.60;76.31
25945;SHT31;13742;49.306;8.636;2022-09-09T04:03:33;17.63;76.06
25945;SHT31;13742;49.306;8.636;2022-09-09T04:04:33;17.66;76.65
25945;SHT31;13742;49.306;8.636;2022-09-09T04:05:34;17.66;76.39
25945;SHT31;13742;49.306;8.636;2022-09-09T04:06:34;17.65;76.16
25945;SHT31;13742;49.306;8.636;2022-09-09T04:07:33;17.66;76.05
25945;SHT31;13742;49.306;8.636;2022-09-09T04:08:34;17.66;76.53
25945;SHT31;13742;49.306;8.636;2022-09-09T04:09:34;17.69;76.78
25945;SHT31;13742;49.306;8.636;2022-09-09T04:10:34;17.69;76.68
25945;SHT31;13742;49.306;8.636;2022-09-09T04:11:34;17.69;76.36
25945;SHT31;13742;49.306;8.636;2022-09-09T04:12:34;17.66;76.27
25945;SHT31;13742;49.306;8.636;2022-09-09T04:13:35;17.66;76.19
25945;SHT31;13742;49.306;8.636;2022-09-09T04:14:33;17.66;76.61
25945;SHT31;13742;49.306;8.636;2022-09-09T04:15:34;17.66;76.32
25945;SHT31;13742;49.306;8.636;2022-09-09T04:16:34;17.66;76.40
25945;SHT31;13742;49.306;8.636;2022-09-09T04:17:33;17.67;76.14
25945;SHT31;13742;49.306;8.636;2022-09-09T04:18:34;17.67;76.70
25945;SHT31;13742;49.306;8.636;2022-09-09T04:19:33;17.69;76.54
25945;SHT31;13742;49.306;8.636;2022-09-09T04:20:33;17.69;76.45
25945;SHT31;13742;49.306;8.636;2022-09-09T04:21:33;17.63;76.35
25945;SHT31;13742;49.306;8.636;2022-09-09T04:22:34;17.65;76.24
25945;SHT31;13742;49.306;8.636;2022-09-09T04:23:34;17.65;76.18
25945;SHT31;13742;49.306;8.636;2022-09-09T04:24:33;17.63;76.32
25945;SHT31;13742;49.306;8.636;2022-09-09T04:25:34;17.65;76.59
25945;SHT31;13742;49.306;8.636;2022-09-09T04:26:34;17.67;76.24
25945;SHT31;13742;49.306;8.636;2022-09-09T04:27:33;17.66;76.16
25945;SHT31;13742;49.306;8.636;2022-09-09T04:28:35;17.66;76.39
25945;SHT31;13742;49.306;8.636;2022-09-09T04:29:33;17.65;76.46
25945;SHT31;13742;49.306;8.636;2022-09-09T04:30:34;17.66;76.30
25945;SHT31;13742;49.306;8.636;2022-09-09T04:31:34;17.67;76.04
25945;SHT31;13742;49.306;8.636;2022-09-09T04:32:33;17.63;76.48
25945;SHT31;13742;49.306;8.636;2022-09-09T04:33:33;17.67;76.37
25945;SHT31;13742;49.306;8.636;2022-09-09T04:34:33;17.66;76.56
25945;SHT31;13742;49.306;8.636;2022-09-09T04:35:33;17.66;76.55
25945;SHT31;13742;49.306;8.636;2022-09-09T04:36:34;17.63;76.30
25945;SHT31;13742;49.306;8.636;2022-09-09T04:37:33;17.63;76.21
25945;SHT31;13742;49.306;8.636;2022-09-09T04:38:33;17.63;76.11
25945;SHT31;13742;49.306;8.636;2022-09-09T04:39:33;17.63;76.10
25945;SHT31;13742;49.306;8.636;2022-09-09T04:40:33;17.63;76.02
25945;SHT31;13742;49.306;8.636;2022-09-09T04:41:37;17.62;76.26
25945;SHT31;13742;49.306;8.636;2022-09-09T04:42:36;17.63;76.12
25945;SHT31;13742;49.306;8.636;2022-09-09T04:43:34;17.62;76.04
25945;SHT31;13742;49.306;8.636;2022-09-09T04:44:33;17.57;75.88
25945;SHT31;13742;49.306;8.636;2022-09-09T04:45:33;17.60;75.99
25945;SHT31;13742;49.306;8.636;2022-09-09T04:46:34;17.59;76.40
25945;SHT31;13742;49.306;8.636;2022-09-09T04:47:35;17.60;76.21
25945;SHT31;13742;49.306;8.636;2022-09-09T04:48:33;17.63;76.02
25945;SHT31;13742;49.306;8.636;2022-09-09T04:49:33;17.60;76.40
25945;SHT31;13742;49.306;8.636;2022-09-09T04:50:33;17.63;76.35
25945;SHT31;13742;49.306;8.636;2022-09-09T04:51:33;17.63;76.05
25945;SHT31;13742;49.306;8.636;2022-09-09T04:52:36;17.60;76.03
25945;SHT31;13742;49.306;8.636;2022-09-09T04:53:37;17.62;76.44
25945;SHT31;13742;49.306;8.636;2022-09-09T04:54:33;17.60;76.19
25945;SHT31;13742;49.306;8.636;2022-09-09T04:55:35;17.62;76.39
25945;SHT31;13742;49.306;8.636;2022-09-09T04:56:33;17.60;76.59
25945;SHT31;13742;49.306;8.636;2022-09-09T04:57:34;17.59;76.20
25945;SHT31;13742;49.306;8.636;2022-09-09T04:58:33;17.59;76.40
25945;SHT31;13742;49.306;8.636;2022-09-09T04:59:33;17.59;76.09
25945;SHT31;13742;49.306;8.636;2022-09-09T05:00:35;17.59;76.18
25945;SHT31;13742;49.306;8.636;2022-09-09T05:01:34;17.57;76.21
25945;SHT31;13742;49.306;8.636;2022-09-09T05:02:37;17.56;76.28
25945;SHT31;13742;49.306;8.636;2022-09-09T05:03:33;17.57;76.56
25945;SHT31;13742;49.306;8.636;2022-09-09T05:04:33;17.59;76.56
25945;SHT31;13742;49.306;8.636;2022-09-09T05:05:36;17.59;76.61
25945;SHT31;13742;49.306;8.636;2022-09-09T05:06:34;17.62;76.64
25945;SHT31;13742;49.306;8.636;2022-09-09T05:07:33;17.60;76.74
25945;SHT31;13742;49.306;8.636;2022-09-09T05:08:34;17.62;76.48
25945;SHT31;13742;49.306;8.636;2022-09-09T05:09:33;17.62;76.29
25945;SHT31;13742;49.306;8.636;2022-09-09T05:10:34;17.62;76.21
25945;SHT31;13742;49.306;8.636;2022-09-09T05:11:36;17.62;76.37
25945;SHT31;13742;49.306;8.636;2022-09-09T05:12:33;17.63;76.41
25945;SHT31;13742;49.306;8.636;2022-09-09T05:13:33;17.62;76.47
25945;SHT31;13742;49.306;8.636;2022-09-09T05:14:33;17.62;76.15
25945;SHT31;13742;49.306;8.636;2022-09-09T05:15:33;17.62;76.29
25945;SHT31;13742;49.306;8.636;2022-09-09T05:16:34;17.63;76.71
25945;SHT31;13742;49.306;8.636;2022-09-09T05:17:33;17.60;76.62
25945;SHT31;13742;49.306;8.636;2022-09-09T05:18:33;17.60;76.29
25945;SHT31;13742;49.306;8.636;2022-09-09T05:19:33;17.62;76.26
25945;SHT31;13742;49.306;8.636;2022-09-09T05:20:33;17.59;76.17
25945;SHT31;13742;49.306;8.636;2022-09-09T05:21:34;17.59;76.50
25945;SHT31;13742;49.306;8.636;2022-09-09T05:22:33;17.56;76.47
25945;SHT31;13742;49.306;8.636;2022-09-09T05:23:34;17.54;76.31
25945;SHT31;13742;49.306;8.636;2022-09-09T05:24:33;17.56;77.01
25945;SHT31;13742;49.306;8.636;2022-09-09T05:25:33;17.57;76.57
25945;SHT31;13742;49.306;8.636;2022-09-09T05:26:33;17.56;76.91
25945;SHT31;13742;49.306;8.636;2022-09-09T05:27:34;17.54;76.64
25945;SHT31;13742;49.306;8.636;2022-09-09T05:28:34;17.56;76.44
25945;SHT31;13742;49.306;8.636;2022-09-09T05:29:33;17.57;76.64
25945;SHT31;13742;49.306;8.636;2022-09-09T05:30:34;17.54;76.48
25945;SHT31;13742;49.306;8.636;2022-09-09T05:31:33;17.59;76.80
25945;SHT31;13742;49.306;8.636;2022-09-09T05:32:34;17.60;76.84
25945;SHT31;13742;49.306;8.636;2022-09-09T05:33:35;17.59;76.95
25945;SHT31;13742;49.306;8.636;2022-09-09T05:34:33;17.54;76.62
25945;SHT31;13742;49.306;8.636;2022-09-09T05:35:33;17.50;76.41
25945;SHT31;13742;49.306;8.636;2022-09-09T05:36:33;17.54;76.61
25945;SHT31;13742;49.306;8.636;2022-09-09T05:37:33;17.53;76.34
25945;SHT31;13742;49.306;8.636;2022-09-09T05:38:34;17.52;76.25
25945;SHT31;13742;49.306;8.636;2022-09-09T05:39:34;17.52;76.35
25945;SHT31;13742;49.306;8.636;2022-09-09T05:40:33;17.53;76.48
25945;SHT31;13742;49.306;8.636;2022-09-09T05:41:34;17.49;76.48
25945;SHT31;13742;49.306;8.636;2022-09-09T05:42:33;17.49;76.35
25945;SHT31;13742;49.306;8.636;2022-09-09T05:43:35;17.43;76.37
25945;SHT31;13742;49.306;8.636;2022-09-09T05:44:33;17.45;76.45
25945;SHT31;13742;49.306;8.636;2022-09-09T05:45:33;17.45;76.48
25945;SHT31;13742;49.306;8.636;2022-09-09T05:46:33;17.45;76.47
25945;SHT31;13742;49.306;8.636;2022-09-09T05:47:33;17.40;76.40
25945;SHT31;13742;49.306;8.636;2022-09-09T05:48:36;17.36;76.67
25945;SHT31;13742;49.306;8.636;2022-09-09T05:49:33;17.38;76.68
25945;SHT31;13742;49.306;8.636;2022-09-09T05:50:33;17.39;76.64
25945;SHT31;13742;49.306;8.636;2022-09-09T05:51:33;17.38;76.51
25945;SHT31;13742;49.306;8.636;2022-09-09T05:52:33;17.38;76.65
25945;SHT31;13742;49.306;8.636;2022-09-09T05:53:36;17.39;76.42
25945;SHT31;13742;49.306;8.636;2022-09-09T05:54:33;17.38;76.49
25945;SHT31;13742;49.306;8.636;2022-09-09T05:55:33;17.39;76.25
25945;SHT31;13742;49.306;8.636;2022-09-09T05:56:33;17.38;76.68
25945;SHT31;13742;49.306;8.636;2022-09-09T05:57:34;17.39;76.53
25945;SHT31;13742;49.306;8.636;2022-09-09T05:58:34;17.40;76.42
25945;SHT31;13742;49.306;8.636;2022-09-09T05:59:33;17.42;76.52
25945;SHT31;13742;49.306;8.636;2022-09-09T06:00:33;17.42;76.43
25945;SHT31;13742;49.306;8.636;2022-09-09T06:01:35;17.42;76.45
25945;SHT31;13742;49.306;8.636;2022-09-09T06:02:33;17.38;76.14
25945;SHT31;13742;49.306;8.636;2022-09-09T06:03:34;17.38;76.18
25945;SHT31;13742;49.306;8.636;2022-09-09T06:04:33;17.39;76.36
25945;SHT31;13742;49.306;8.636;2022-09-09T06:05:35;17.38;76.32
25945;SHT31;13742;49.306;8.636;2022-09-09T06:06:38;17.40;76.32
25945;SHT31;13742;49.306;8.636;2022-09-09T06:07:33;17.43;76.63
25945;SHT31;13742;49.306;8.636;2022-09-09T06:08:35;17.40;76.37
25945;SHT31;13742;49.306;8.636;2022-09-09T06:09:33;17.35;76.21
25945;SHT31;13742;49.306;8.636;2022-09-09T06:10:34;17.33;76.38
25945;SHT31;13742;49.306;8.636;2022-09-09T06:11:39;17.35;76.32
25945;SHT31;13742;49.306;8.636;2022-09-09T06:12:33;17.39;76.46
25945;SHT31;13742;49.306;8.636;2022-09-09T06:13:33;17.40;76.51
25945;SHT31;13742;49.306;8.636;2022-09-09T06:14:33;17.36;76.85
25945;SHT31;13742;49.306;8.636;2022-09-09T06:15:34;17.39;76.69
25945;SHT31;13742;49.306;8.636;2022-09-09T06:16:34;17.43;76.55
25945;SHT31;13742;49.306;8.636;2022-09-09T06:17:33;17.46;76.82
25945;SHT31;13742;49.306;8.636;2022-09-09T06:18:33;17.45;76.56
25945;SHT31;13742;49.306;8.636;2022-09-09T06:19:33;17.45;76.45
25945;SHT31;13742;49.306;8.636;2022-09-09T06:20:34;17.48;76.56
25945;SHT31;13742;49.306;8.636;2022-09-09T06:21:36;17.50;76.71
25945;SHT31;13742;49.306;8.636;2022-09-09T06:22:33;17.54;76.61
25945;SHT31;13742;49.306;8.636;2022-09-09T06:23:35;17.54;76.24
25945;SHT31;13742;49.306;8.636;2022-09-09T06:24:33;17.53;76.32
25945;SHT31;13742;49.306;8.636;2022-09-09T06:25:34;17.56;76.20
25945;SHT31;13742;49.306;8.636;2022-09-09T06:26:35;17.59;76.25
25945;SHT31;13742;49.306;8.636;2022-09-09T06:27:33;17.62;76.34
25945;SHT31;13742;49.306;8.636;2022-09-09T06:28:34;17.62;76.05
25945;SHT31;13742;49.306;8.636;2022-09-09T06:29:33;17.63;76.07
25945;SHT31;13742;49.306;8.636;2022-09-09T06:30:33;17.66;76.25
25945;SHT31;13742;49.306;8.636;2022-09-09T06:31:35;17.67;76.27
25945;SHT31;13742;49.306;8.636;2022-09-09T06:32:35;17.67;76.15
25945;SHT31;13742;49.306;8.636;2022-09-09T06:33:39;17.70;76.19
25945;SHT31;13742;49.306;8.636;2022-09-09T06:34:33;17.66;75.89
25945;SHT31;13742;49.306;8.636;2022-09-09T06:35:33;17.70;76.12
25945;SHT31;13742;49.306;8.636;2022-09-09T06:36:35;17.72;76.15
25945;SHT31;13742;49.306;8.636;2022-09-09T06:37:33;17.73;76.03
25945;SHT31;13742;49.306;8.636;2022-09-09T06:38:33;17.79;76.00
25945;SHT31;13742;49.306;8.636;2022-09-09T06:39:33;17.80;76.09
25945;SHT31;13742;49.306;8.636;2022-09-09T06:40:33;17.83;75.95
25945;SHT31;13742;49.306;8.636;2022-09-09T06:41:33;17.84;75.76
25945;SHT31;13742;49.306;8.636;2022-09-09T06:42:33;17.87;75.34
25945;SHT31;13742;49.306;8.636;2022-09-09T06:43:34;17.88;75.51
25945;SHT31;13742;49.306;8.636;2022-09-09T06:44:33;17.94;75.41
25945;SHT31;13742;49.306;8.636;2022-09-09T06:45:35;17.94;75.32
25945;SHT31;13742;49.306;8.636;2022-09-09T06:46:35;17.96;75.09
25945;SHT31;13742;49.306;8.636;2022-09-09T06:47:33;17.96;74.67
25945;SHT31;13742;49.306;8.636;2022-09-09T06:48:33;18.00;74.79
25945;SHT31;13742;49.306;8.636;2022-09-09T06:49:35;18.00;74.54
25945;SHT31;13742;49.306;8.636;2022-09-09T06:50:33;18.01;74.56
25945;SHT31;13742;49.306;8.636;2022-09-09T06:51:35;18.01;74.43